Humidity-temperature Sensor

Selected Measurement Type: Air Temperature

 
Air Temperature [°C]     6 entries per hour
Showing data from 11/19/2014 (00:00:00 Z) to 11/18/2014 (00:01:00 Z)
Previous Next [ Day | 3-Days | 7-Days ]
First Last
Prev [ Day | 3-Days | 7-Days ] Next
First Last

Start Time:     :
End Time:     :     
Time (in GMT) :00 :50 :40 :30 :20 :10
Previous Next [ Day | 3-Days | 7-Days ]
First Last
Prev [ Day | 3-Days | 7-Days ] Next
First Last


123 => good data
MM => data is determined as missing
-- => data not received/configured
Back to Top Back to Top
11/19/2014 00:00 to 23:10 22.62 22.74 22.57 22.70 22.75 22.82
11/18/2014 23:00 to 22:10 22.75 22.79 22.82 22.81 22.77 22.83
11/18/2014 22:00 to 21:10 22.86 22.91 22.93 22.77 22.72 22.74
11/18/2014 21:00 to 20:10 22.74 22.69 22.58 22.68 22.71 22.59
11/18/2014 20:00 to 19:10 22.50 22.59 22.63 22.56 22.46 22.41
11/18/2014 19:00 to 18:10 22.48 22.50 22.43 22.37 22.41 22.43
11/18/2014 18:00 to 17:10 22.34 22.37 22.34 22.34 22.44 22.49
11/18/2014 17:00 to 16:10 22.37 22.47 22.33 22.43 22.33 22.33
11/18/2014 16:00 to 15:10 22.45 22.39 22.42 22.38 22.56 22.42
11/18/2014 15:00 to 14:10 22.45 22.40 22.54 22.65 22.67 22.66
11/18/2014 14:00 to 13:10 22.67 22.74 22.80 22.73 22.82 22.86
11/18/2014 13:00 to 12:10 22.70 22.56 22.42 22.23 22.05 21.90
11/18/2014 12:00 to 11:10 21.79 21.84 21.89 21.90 21.93 22.00
11/18/2014 11:00 to 10:10 21.94 21.90 21.77 21.95 21.91 21.90
11/18/2014 10:00 to 9:10 21.77 21.95 21.92 21.86 21.88 22.01
11/18/2014 09:00 to 8:10 21.95 21.96 21.92 21.96 21.92 21.97
11/18/2014 08:00 to 7:10 21.94 21.99 22.03 22.07 22.01 22.11
11/18/2014 07:00 to 6:10 22.11 22.12 22.13 22.15 22.15 22.20
11/18/2014 06:00 to 5:10 22.25 22.20 22.24 22.25 22.29 22.27
11/18/2014 05:00 to 4:10 22.28 22.34 22.31 22.36 22.35 22.41
11/18/2014 04:00 to 3:10 22.37 22.45 22.42 22.48 22.48 22.49
11/18/2014 03:00 to 2:10 22.56 22.48 22.52 22.55 22.49 22.51
11/18/2014 02:00 to 1:10 22.59 22.63 22.60 22.56 22.51 22.61
11/18/2014 01:00 to 0:10 22.52 22.66 22.62 22.65 22.66 22.68